Roseway — WDB8858 — position and weather

sailwx.info

Track history (hours):
 
Tides and Currents Weather Stations Pressure Air Temp Water Temp Dewpoint Dewpoint Depression Visibility Wind Speed Wind Dir Waves Ship Positions

Roseway

Last pilot schooner in the United States when retired in 1973. Offered teen sailing program through World Ocean School since 2002.

Ship's website: http://www.worldoceanschool.org

Owner: World Ocean School, Boston, MA. More information available from US FCC via Universal Licensing System and Coast Guard Vessel Documentation Center.

Last reported at 2019-Aug-20 11:00 UTC. Time now 2019-Aug-22 09:13 UTC.
Position N 41°38' W 070°44'.

Length 34 m; draft 3.3 m.

Type: Sailing vessel. MMSI: 366866000.

Date/timePositionNaut miles runAvg speedWind from/ knotsBaromVisibWave heightAir tempDewpointWater temp
2019-Aug-20 11:00N 41°38' W 070°44'4 6.7
2019-Aug-20 10:25N 41°35' W 070°48'3 6.0
2019-Aug-20 09:51N 41°34' W 070°52'  
2019-Aug-14 16:53N 41°14' W 072°05'1 2.3
2019-Aug-14 16:30N 41°15' W 072°04'1 2.6
2019-Aug-14 16:00N 41°16' W 072°03'2 3.4
2019-Aug-14 15:30N 41°17' W 072°01'1 0.7
2019-Aug-14 14:39N 41°17' W 072°00'0 0.0
2019-Aug-14 03:57N 41°17' W 072°00'0 0.0
2019-Aug-13 23:19N 41°17' W 072°00'0 0.0
2019-Aug-13 22:55N 41°17' W 072°00'0 0.0
2019-Aug-13 22:19N 41°17' W 072°00'0 0.0
2019-Aug-13 21:24N 41°17' W 072°00'2 3.9
2019-Aug-13 21:00N 41°18' W 071°59'39 1.6
2019-Aug-12 20:19N 41°27' W 071°08'9 4.2
2019-Aug-12 18:14N 41°30' W 070°57'5 4.8
2019-Aug-12 17:15N 41°29' W 070°51'2 7.1
2019-Aug-12 16:57N 41°31' W 070°51'2 4.8
2019-Aug-12 16:30N 41°33' W 070°50'4 7.2
2019-Aug-12 16:00N 41°33' W 070°45'3 5.6
2019-Aug-12 15:30N 41°34' W 070°41'4 7.6
2019-Aug-12 15:00N 41°37' W 070°42'3 6.4
2019-Aug-12 14:28N 41°41' W 070°41'4 7.9
2019-Aug-12 13:56N 41°44' W 070°38'  
Track history (hours):
 
Tides and Currents Weather Stations Pressure Air Temp Water Temp Dewpoint Dewpoint Depression Visibility Wind Speed Wind Dir Waves Ship Positions

Roseway

Last pilot schooner in the United States when retired in 1973. Offered teen sailing program through World Ocean School since 2002.

Ship's website: http://www.worldoceanschool.org

Owner: World Ocean School, Boston, MA. More information available from US FCC via Universal Licensing System and Coast Guard Vessel Documentation Center.

Last reported at 2019-Aug-20 11:00 UTC. Time now 2019-Aug-22 09:13 UTC.
Position N 41°38' W 070°44'.

Length 34 m; draft 3.3 m.

Type: Sailing vessel. MMSI: 366866000.

Date/timePositionNaut miles runAvg speedWind from/ knotsBaromVisibWave heightAir tempDewpointWater temp
2019-Aug-20 11:00N 41°38' W 070°44'4 6.7
2019-Aug-20 10:25N 41°35' W 070°48'3 6.0
2019-Aug-20 09:51N 41°34' W 070°52'  
2019-Aug-14 16:53N 41°14' W 072°05'1 2.3
2019-Aug-14 16:30N 41°15' W 072°04'1 2.6
2019-Aug-14 16:00N 41°16' W 072°03'2 3.4
2019-Aug-14 15:30N 41°17' W 072°01'1 0.7
2019-Aug-14 14:39N 41°17' W 072°00'0 0.0
2019-Aug-14 03:57N 41°17' W 072°00'0 0.0
2019-Aug-13 23:19N 41°17' W 072°00'0 0.0
2019-Aug-13 22:55N 41°17' W 072°00'0 0.0
2019-Aug-13 22:19N 41°17' W 072°00'0 0.0
2019-Aug-13 21:24N 41°17' W 072°00'2 3.9
2019-Aug-13 21:00N 41°18' W 071°59'39 1.6
2019-Aug-12 20:19N 41°27' W 071°08'9 4.2
2019-Aug-12 18:14N 41°30' W 070°57'5 4.8
2019-Aug-12 17:15N 41°29' W 070°51'2 7.1
2019-Aug-12 16:57N 41°31' W 070°51'2 4.8
2019-Aug-12 16:30N 41°33' W 070°50'4 7.2
2019-Aug-12 16:00N 41°33' W 070°45'3 5.6
2019-Aug-12 15:30N 41°34' W 070°41'4 7.6
2019-Aug-12 15:00N 41°37' W 070°42'3 6.4
2019-Aug-12 14:28N 41°41' W 070°41'4 7.9
2019-Aug-12 13:56N 41°44' W 070°38'  

Dump ship's entire track history